Aérodrome :
LOGIN :

S'inscrire | Disclaimer

   EN    FR    IT 

 










Légende :    VFR   VFR Marginal   IFR   IFR Intensif   IFR Très Intensif
Visi : 
Plafond : 
>= 8 km
>= 3000ft
5 à 8 km
1000 à 3000 ft
1500m à 5 km
500 à 1000 ft
800 à 1500m
200 à 500 ft
< 800m
< 200 ft
Symboles :   Orages  Brouillard  Fortes neiges  Fortes précipitations  Vent > 20 kt
SIGMETs :   Divers  Orages  Givrage  Turbulence  Onde Orograph.  Cendres Volcan.







- Altitude de l'aérodrome : 1910 ft
- Code IATA : RDZ
- Voir les cartes d'approche


LFCR - Rodez

DERNIER METAR :
  • 250930Z AUTO 01012KT 340V040 9000 NSC 10/01 Q1023 NOSIG

METARs EXPIRÉS :
  • 250900Z AUTO 02010KT 320V050 9000 NSC 09/00 Q1023 NOSIG
  • 250830Z AUTO 03008KT 360V060 9000 NSC 08/01 Q1023 NOSIG
  • 250800Z AUTO 03007KT 360V060 9000 NSC 07/01 Q1023 NOSIG
  • 250730Z AUTO 02004KT 350V050 9000 NSC 05/01 Q1023 NOSIG
  • 250700Z AUTO VRB02KT 5000 BR NSC 02/02 Q1023 NOSIG

TAF TAF LFCR
Valide du 25 à 06h jusqu'au 26 à 06h UTC


250500Z 2506/2606 29005KT CAVOK
PROB40
TEMPO 2506/2507 4000 BR
BECMG 2509/2511 36010KT
Pas de NOTAMs connus pour ce terrain.
1 SIGMET publié pour la FIR Bordeaux (LFBB) :
 
Turbulence forte
LFBB SIGMET 1 VALID 250900/251200 LFPW
LFBB BORDEAUX FIR/UIR SEV TURB FCST WI N4345 E00245 - N4245 E00230 - N4245 E00200 - N4345 E00245 SFC/FL060 STNR INTSF=



MET'MAP, la Météo Aéronautique d'un coup d'oeil ! - Copyright ORBIFLY Décembre 2007 - Disclaimer

ORBIFLY MET'MAP TEAM :

Programmation & Développement : Alexandra Zaïnal
Conception & Développement : Baudouin d'Aumeries
Co-Programmation & Développement : Marc-Olivier Méhu
Soutien technique & logistique : Manuel Goepfert

Contact : metmap@orbifly.com




SOURCES & CREDITS :

   NOAA